sensor_id;sensor_type;location;lat;lon;timestamp;pressure;altitude;pressure_sealevel;temperature;humidity
20350;BME280;10332;50.208;18.988;2023-04-15T00:02:20;96709.13;;;12.51;82.90
20350;BME280;10332;50.208;18.988;2023-04-15T00:04:48;96708.91;;;12.44;83.42
20350;BME280;10332;50.208;18.988;2023-04-15T00:07:16;96702.84;;;12.44;83.06
20350;BME280;10332;50.208;18.988;2023-04-15T00:09:44;96714.81;;;12.46;83.07
20350;BME280;10332;50.208;18.988;2023-04-15T00:12:12;96717.44;;;12.46;82.91
20350;BME280;10332;50.208;18.988;2023-04-15T00:14:39;96718.09;;;12.48;82.66
20350;BME280;10332;50.208;18.988;2023-04-15T00:17:07;96716.16;;;12.50;82.62
20350;BME280;10332;50.208;18.988;2023-04-15T00:19:34;96723.06;;;12.52;82.65
20350;BME280;10332;50.208;18.988;2023-04-15T00:22:02;96730.09;;;12.51;82.33
20350;BME280;10332;50.208;18.988;2023-04-15T00:24:29;96734.50;;;12.50;82.26
20350;BME280;10332;50.208;18.988;2023-04-15T00:26:57;96739.72;;;12.50;82.08
20350;BME280;10332;50.208;18.988;2023-04-15T00:29:25;96740.56;;;12.51;81.92
20350;BME280;10332;50.208;18.988;2023-04-15T00:31:53;96742.19;;;12.52;81.82
20350;BME280;10332;50.208;18.988;2023-04-15T00:34:20;96752.00;;;12.50;82.14
20350;BME280;10332;50.208;18.988;2023-04-15T00:36:49;96756.94;;;12.53;82.00
20350;BME280;10332;50.208;18.988;2023-04-15T00:39:17;96753.91;;;12.48;82.48
20350;BME280;10332;50.208;18.988;2023-04-15T00:41:45;96759.03;;;12.49;82.29
20350;BME280;10332;50.208;18.988;2023-04-15T00:44:12;96748.16;;;12.44;82.08
20350;BME280;10332;50.208;18.988;2023-04-15T00:46:41;96755.06;;;12.45;82.02
20350;BME280;10332;50.208;18.988;2023-04-15T00:49:10;96752.75;;;12.42;82.28
20350;BME280;10332;50.208;18.988;2023-04-15T00:51:39;96746.69;;;12.42;82.19
20350;BME280;10332;50.208;18.988;2023-04-15T00:54:06;96758.94;;;12.41;82.25
20350;BME280;10332;50.208;18.988;2023-04-15T00:56:38;96769.84;;;12.37;82.09
20350;BME280;10332;50.208;18.988;2023-04-15T00:59:07;96776.72;;;12.38;82.14
20350;BME280;10332;50.208;18.988;2023-04-15T01:01:35;96766.41;;;12.36;82.06
20350;BME280;10332;50.208;18.988;2023-04-15T01:04:04;96770.81;;;12.36;81.87
20350;BME280;10332;50.208;18.988;2023-04-15T01:06:32;96769.84;;;12.37;81.99
20350;BME280;10332;50.208;18.988;2023-04-15T01:09:00;96763.94;;;12.35;81.75
20350;BME280;10332;50.208;18.988;2023-04-15T01:11:31;96765.19;;;12.31;81.35
20350;BME280;10332;50.208;18.988;2023-04-15T01:14:00;96766.63;;;12.25;81.30
20350;BME280;10332;50.208;18.988;2023-04-15T01:16:29;96762.38;;;12.24;81.05
20350;BME280;10332;50.208;18.988;2023-04-15T01:18:57;96763.19;;;12.25;80.70
20350;BME280;10332;50.208;18.988;2023-04-15T01:21:25;96764.28;;;12.22;80.28
20350;BME280;10332;50.208;18.988;2023-04-15T01:23:54;96759.22;;;12.20;79.59
20350;BME280;10332;50.208;18.988;2023-04-15T01:26:23;96760.69;;;12.05;78.58
20350;BME280;10332;50.208;18.988;2023-04-15T01:28:51;96760.59;;;11.97;77.68
20350;BME280;10332;50.208;18.988;2023-04-15T01:31:18;96760.75;;;11.96;77.50
20350;BME280;10332;50.208;18.988;2023-04-15T01:33:46;96761.19;;;11.91;76.45
20350;BME280;10332;50.208;18.988;2023-04-15T01:36:13;96765.19;;;11.85;76.04
20350;BME280;10332;50.208;18.988;2023-04-15T01:38:41;96764.53;;;11.74;75.64
20350;BME280;10332;50.208;18.988;2023-04-15T01:41:08;96762.31;;;11.79;74.96
20350;BME280;10332;50.208;18.988;2023-04-15T01:43:36;96765.75;;;11.79;73.53
20350;BME280;10332;50.208;18.988;2023-04-15T01:46:04;96767.69;;;11.87;74.07
20350;BME280;10332;50.208;18.988;2023-04-15T01:48:32;96776.19;;;11.89;74.12
20350;BME280;10332;50.208;18.988;2023-04-15T01:51:00;96770.50;;;11.93;74.46
20350;BME280;10332;50.208;18.988;2023-04-15T01:53:28;96777.94;;;11.98;74.89
20350;BME280;10332;50.208;18.988;2023-04-15T01:55:56;96773.69;;;11.97;75.98
20350;BME280;10332;50.208;18.988;2023-04-15T01:58:23;96780.72;;;11.97;76.27
20350;BME280;10332;50.208;18.988;2023-04-15T02:00:51;96788.88;;;11.84;78.72
20350;BME280;10332;50.208;18.988;2023-04-15T02:03:18;96788.88;;;11.84;78.68
20350;BME280;10332;50.208;18.988;2023-04-15T02:05:46;96795.47;;;11.78;78.92
20350;BME280;10332;50.208;18.988;2023-04-15T02:08:13;96788.88;;;11.74;78.71
20350;BME280;10332;50.208;18.988;2023-04-15T02:10:41;96795.41;;;11.60;79.31
20350;BME280;10332;50.208;18.988;2023-04-15T02:13:08;96799.69;;;11.61;79.18
20350;BME280;10332;50.208;18.988;2023-04-15T02:15:37;96802.44;;;11.60;79.06
20350;BME280;10332;50.208;18.988;2023-04-15T02:18:04;96808.75;;;11.57;79.16
20350;BME280;10332;50.208;18.988;2023-04-15T02:20:32;96816.75;;;11.56;79.14
20350;BME280;10332;50.208;18.988;2023-04-15T02:22:59;96820.31;;;11.55;78.41
20350;BME280;10332;50.208;18.988;2023-04-15T02:25:27;96816.47;;;11.49;77.92
20350;BME280;10332;50.208;18.988;2023-04-15T02:27:56;96807.25;;;11.55;77.67
20350;BME280;10332;50.208;18.988;2023-04-15T02:30:24;96814.41;;;11.53;77.83
20350;BME280;10332;50.208;18.988;2023-04-15T02:32:52;96808.94;;;11.46;78.01
20350;BME280;10332;50.208;18.988;2023-04-15T02:35:19;96816.34;;;11.51;77.66
20350;BME280;10332;50.208;18.988;2023-04-15T02:37:47;96816.63;;;11.48;77.38
20350;BME280;10332;50.208;18.988;2023-04-15T02:40:15;96818.97;;;11.51;76.92
20350;BME280;10332;50.208;18.988;2023-04-15T02:42:42;96824.91;;;11.43;76.72
20350;BME280;10332;50.208;18.988;2023-04-15T02:45:11;96822.03;;;11.36;76.25
20350;BME280;10332;50.208;18.988;2023-04-15T02:47:39;96830.41;;;11.21;75.78
20350;BME280;10332;50.208;18.988;2023-04-15T02:50:12;96830.03;;;11.16;75.77
20350;BME280;10332;50.208;18.988;2023-04-15T02:52:41;96830.44;;;11.11;75.35
20350;BME280;10332;50.208;18.988;2023-04-15T02:55:09;96836.78;;;11.08;75.50
20350;BME280;10332;50.208;18.988;2023-04-15T02:57:37;96834.97;;;11.09;75.15
20350;BME280;10332;50.208;18.988;2023-04-15T03:00:06;96844.19;;;11.03;74.86
20350;BME280;10332;50.208;18.988;2023-04-15T03:02:39;96851.06;;;11.04;74.42
20350;BME280;10332;50.208;18.988;2023-04-15T03:05:12;96852.69;;;10.86;74.30
20350;BME280;10332;50.208;18.988;2023-04-15T03:07:40;96857.91;;;10.86;74.61
20350;BME280;10332;50.208;18.988;2023-04-15T03:10:08;96850.09;;;10.86;74.49
20350;BME280;10332;50.208;18.988;2023-04-15T03:12:36;96859.44;;;10.79;74.54
20350;BME280;10332;50.208;18.988;2023-04-15T03:15:04;96849.00;;;10.79;74.42
20350;BME280;10332;50.208;18.988;2023-04-15T03:17:32;96858.88;;;10.85;74.30
20350;BME280;10332;50.208;18.988;2023-04-15T03:20:02;96850.91;;;10.77;74.25
20350;BME280;10332;50.208;18.988;2023-04-15T03:22:32;96866.84;;;10.74;74.30
20350;BME280;10332;50.208;18.988;2023-04-15T03:24:59;96859.56;;;10.68;74.52
20350;BME280;10332;50.208;18.988;2023-04-15T03:27:27;96864.25;;;10.74;74.30
20350;BME280;10332;50.208;18.988;2023-04-15T03:29:55;96859.44;;;10.69;74.25
20350;BME280;10332;50.208;18.988;2023-04-15T03:32:23;96855.31;;;10.67;74.30
20350;BME280;10332;50.208;18.988;2023-04-15T03:34:50;96857.38;;;10.63;74.14
20350;BME280;10332;50.208;18.988;2023-04-15T03:37:18;96870.81;;;10.59;74.34
20350;BME280;10332;50.208;18.988;2023-04-15T03:39:45;96884.44;;;10.62;74.16
20350;BME280;10332;50.208;18.988;2023-04-15T03:42:13;96882.50;;;10.55;74.31
20350;BME280;10332;50.208;18.988;2023-04-15T03:44:40;96889.75;;;10.51;74.61
20350;BME280;10332;50.208;18.988;2023-04-15T03:47:08;96882.19;;;10.48;74.31
20350;BME280;10332;50.208;18.988;2023-04-15T03:49:36;96887.09;;;10.41;74.62
20350;BME280;10332;50.208;18.988;2023-04-15T03:52:03;96886.44;;;10.39;74.42
20350;BME280;10332;50.208;18.988;2023-04-15T03:54:31;96892.06;;;10.35;74.58
20350;BME280;10332;50.208;18.988;2023-04-15T03:56:58;96898.34;;;10.32;74.63
20350;BME280;10332;50.208;18.988;2023-04-15T03:59:26;96901.38;;;10.37;74.56
20350;BME280;10332;50.208;18.988;2023-04-15T04:01:53;96897.81;;;10.38;74.58
20350;BME280;10332;50.208;18.988;2023-04-15T04:04:21;96902.06;;;10.39;74.45
20350;BME280;10332;50.208;18.988;2023-04-15T04:06:48;96897.81;;;10.38;74.67
20350;BME280;10332;50.208;18.988;2023-04-15T04:09:16;96898.66;;;10.39;74.75
20350;BME280;10332;50.208;18.988;2023-04-15T04:11:43;96897.28;;;10.35;74.71
20350;BME280;10332;50.208;18.988;2023-04-15T04:14:11;96898.50;;;10.40;74.63
20350;BME280;10332;50.208;18.988;2023-04-15T04:16:39;96893.03;;;10.43;74.43
20350;BME280;10332;50.208;18.988;2023-04-15T04:19:06;96893.16;;;10.42;74.48
20350;BME280;10332;50.208;18.988;2023-04-15T04:21:34;96895.22;;;10.38;74.67
20350;BME280;10332;50.208;18.988;2023-04-15T04:24:02;96902.22;;;10.38;74.75
20350;BME280;10332;50.208;18.988;2023-04-15T04:26:30;96900.44;;;10.38;74.82
20350;BME280;10332;50.208;18.988;2023-04-15T04:28:57;96905.25;;;10.43;74.92
20350;BME280;10332;50.208;18.988;2023-04-15T04:31:25;96901.56;;;10.55;74.63
20350;BME280;10332;50.208;18.988;2023-04-15T04:33:53;96908.75;;;10.63;74.36
20350;BME280;10332;50.208;18.988;2023-04-15T04:36:20;96916.59;;;10.72;74.47
20350;BME280;10332;50.208;18.988;2023-04-15T04:38:48;96916.16;;;10.77;74.26
20350;BME280;10332;50.208;18.988;2023-04-15T04:41:15;96918.94;;;10.85;74.04
20350;BME280;10332;50.208;18.988;2023-04-15T04:43:43;96920.88;;;10.93;73.94
20350;BME280;10332;50.208;18.988;2023-04-15T04:46:11;96917.06;;;11.06;73.98
20350;BME280;10332;50.208;18.988;2023-04-15T04:48:39;96917.44;;;11.21;73.71
20350;BME280;10332;50.208;18.988;2023-04-15T04:51:06;96914.59;;;11.34;73.60
20350;BME280;10332;50.208;18.988;2023-04-15T04:53:34;96912.78;;;11.44;73.36
20350;BME280;10332;50.208;18.988;2023-04-15T04:56:03;96919.09;;;11.51;73.39
20350;BME280;10332;50.208;18.988;2023-04-15T04:58:31;96925.28;;;11.60;73.34
20350;BME280;10332;50.208;18.988;2023-04-15T05:00:58;96926.78;;;11.62;73.14
20350;BME280;10332;50.208;18.988;2023-04-15T05:03:26;96926.66;;;11.64;72.83
20350;BME280;10332;50.208;18.988;2023-04-15T05:05:54;96934.75;;;11.71;72.82
20350;BME280;10332;50.208;18.988;2023-04-15T05:08:21;96925.66;;;11.75;72.95
20350;BME280;10332;50.208;18.988;2023-04-15T05:10:48;96934.22;;;11.86;72.69
20350;BME280;10332;50.208;18.988;2023-04-15T05:13:16;96941.75;;;11.99;72.58
20350;BME280;10332;50.208;18.988;2023-04-15T05:15:43;96939.66;;;12.03;72.34
20350;BME280;10332;50.208;18.988;2023-04-15T05:18:11;96946.69;;;12.02;72.35
20350;BME280;10332;50.208;18.988;2023-04-15T05:20:39;96939.41;;;12.06;72.18
20350;BME280;10332;50.208;18.988;2023-04-15T05:23:07;96941.16;;;12.15;72.20
20350;BME280;10332;50.208;18.988;2023-04-15T05:25:34;96939.06;;;12.18;72.06
20350;BME280;10332;50.208;18.988;2023-04-15T05:28:01;96938.50;;;12.25;72.22
20350;BME280;10332;50.208;18.988;2023-04-15T05:30:29;96936.16;;;12.31;72.03
20350;BME280;10332;50.208;18.988;2023-04-15T05:32:57;96944.53;;;12.35;71.89
20350;BME280;10332;50.208;18.988;2023-04-15T05:35:24;96948.44;;;12.48;71.66
20350;BME280;10332;50.208;18.988;2023-04-15T05:37:52;96946.75;;;12.57;71.38
20350;BME280;10332;50.208;18.988;2023-04-15T05:40:19;96951.00;;;12.68;71.41
20350;BME280;10332;50.208;18.988;2023-04-15T05:42:47;96953.16;;;12.72;70.94
20350;BME280;10332;50.208;18.988;2023-04-15T05:45:14;96956.84;;;12.79;71.02
20350;BME280;10332;50.208;18.988;2023-04-15T05:47:42;96950.06;;;12.87;70.64
20350;BME280;10332;50.208;18.988;2023-04-15T05:50:09;96947.13;;;12.90;70.65
20350;BME280;10332;50.208;18.988;2023-04-15T05:52:37;96953.03;;;12.92;70.25
20350;BME280;10332;50.208;18.988;2023-04-15T05:55:05;96962.94;;;12.98;69.95
20350;BME280;10332;50.208;18.988;2023-04-15T05:57:33;96952.25;;;13.09;69.75
20350;BME280;10332;50.208;18.988;2023-04-15T06:00:00;96966.25;;;13.18;69.47
20350;BME280;10332;50.208;18.988;2023-04-15T06:02:28;96964.72;;;13.25;69.27
20350;BME280;10332;50.208;18.988;2023-04-15T06:04:56;96974.25;;;13.26;68.45
20350;BME280;10332;50.208;18.988;2023-04-15T06:07:24;96973.50;;;13.33;68.18
20350;BME280;10332;50.208;18.988;2023-04-15T06:09:51;96973.13;;;13.46;68.17
20350;BME280;10332;50.208;18.988;2023-04-15T06:12:20;96979.94;;;13.57;67.76
20350;BME280;10332;50.208;18.988;2023-04-15T06:14:47;96979.31;;;13.63;67.84
20350;BME280;10332;50.208;18.988;2023-04-15T06:17:15;96982.03;;;13.71;67.30
20350;BME280;10332;50.208;18.988;2023-04-15T06:19:44;96976.84;;;13.79;67.35
20350;BME280;10332;50.208;18.988;2023-04-15T06:22:12;96985.03;;;13.76;66.60
20350;BME280;10332;50.208;18.988;2023-04-15T06:24:40;96993.03;;;13.75;66.79
20350;BME280;10332;50.208;18.988;2023-04-15T06:27:08;96991.16;;;13.85;66.69
20350;BME280;10332;50.208;18.988;2023-04-15T06:29:35;96996.06;;;14.06;66.06
20350;BME280;10332;50.208;18.988;2023-04-15T06:32:03;96993.19;;;14.43;64.82
20350;BME280;10332;50.208;18.988;2023-04-15T06:34:31;96988.50;;;14.89;63.44
20350;BME280;10332;50.208;18.988;2023-04-15T06:36:59;96992.03;;;15.14;62.91
20350;BME280;10332;50.208;18.988;2023-04-15T06:39:28;96994.47;;;15.74;58.25
20350;BME280;10332;50.208;18.988;2023-04-15T06:41:56;96995.31;;;15.91;57.74
20350;BME280;10332;50.208;18.988;2023-04-15T06:44:23;96994.13;;;15.77;56.28
20350;BME280;10332;50.208;18.988;2023-04-15T06:46:51;96997.91;;;16.15;55.20
20350;BME280;10332;50.208;18.988;2023-04-15T06:49:18;97002.34;;;16.94;54.39
20350;BME280;10332;50.208;18.988;2023-04-15T06:51:45;97007.34;;;17.43;53.06
20350;BME280;10332;50.208;18.988;2023-04-15T06:54:13;97007.81;;;18.01;52.11
20350;BME280;10332;50.208;18.988;2023-04-15T06:56:41;96999.59;;;18.48;50.12
20350;BME280;10332;50.208;18.988;2023-04-15T06:59:09;97011.53;;;18.29;49.39
20350;BME280;10332;50.208;18.988;2023-04-15T07:01:36;97018.91;;;18.34;50.04
20350;BME280;10332;50.208;18.988;2023-04-15T07:04:04;97016.72;;;18.37;49.76
20350;BME280;10332;50.208;18.988;2023-04-15T07:06:32;97017.38;;;18.39;49.37
20350;BME280;10332;50.208;18.988;2023-04-15T07:09:00;97020.63;;;18.27;48.16
20350;BME280;10332;50.208;18.988;2023-04-15T07:11:30;97022.03;;;18.52;47.53
20350;BME280;10332;50.208;18.988;2023-04-15T07:13:57;97025.47;;;19.05;46.64
20350;BME280;10332;50.208;18.988;2023-04-15T07:16:25;97030.84;;;19.48;46.37
20350;BME280;10332;50.208;18.988;2023-04-15T07:18:55;97021.06;;;19.84;46.56
20350;BME280;10332;50.208;18.988;2023-04-15T07:21:24;97020.88;;;20.07;45.30
20350;BME280;10332;50.208;18.988;2023-04-15T07:23:51;97017.84;;;19.68;45.16
20350;BME280;10332;50.208;18.988;2023-04-15T07:26:19;97018.22;;;19.65;44.55
20350;BME280;10332;50.208;18.988;2023-04-15T07:28:47;97015.84;;;19.70;44.27
20350;BME280;10332;50.208;18.988;2023-04-15T07:31:15;97024.22;;;19.95;43.26
20350;BME280;10332;50.208;18.988;2023-04-15T07:33:43;97021.03;;;20.27;42.88
20350;BME280;10332;50.208;18.988;2023-04-15T07:36:11;97020.91;;;21.33;42.25
20350;BME280;10332;50.208;18.988;2023-04-15T07:38:39;97018.63;;;22.44;40.95
20350;BME280;10332;50.208;18.988;2023-04-15T07:41:06;97017.91;;;24.54;36.47
20350;BME280;10332;50.208;18.988;2023-04-15T07:43:34;97004.94;;;26.21;34.05
20350;BME280;10332;50.208;18.988;2023-04-15T07:46:01;97017.53;;;28.11;31.10
20350;BME280;10332;50.208;18.988;2023-04-15T07:48:29;97018.69;;;30.51;26.88
20350;BME280;10332;50.208;18.988;2023-04-15T07:50:58;97026.47;;;32.66;23.90
20350;BME280;10332;50.208;18.988;2023-04-15T07:53:25;97033.72;;;34.59;22.03
20350;BME280;10332;50.208;18.988;2023-04-15T07:55:53;97024.47;;;37.02;20.45
20350;BME280;10332;50.208;18.988;2023-04-15T07:58:20;97040.25;;;38.54;18.10
20350;BME280;10332;50.208;18.988;2023-04-15T08:00:48;97032.03;;;38.10;17.09
20350;BME280;10332;50.208;18.988;2023-04-15T08:03:15;97033.44;;;36.88;18.20
20350;BME280;10332;50.208;18.988;2023-04-15T08:05:43;97029.22;;;36.50;18.47
20350;BME280;10332;50.208;18.988;2023-04-15T08:08:11;97031.53;;;38.44;17.16
20350;BME280;10332;50.208;18.988;2023-04-15T08:10:39;97025.56;;;36.03;19.20
20350;BME280;10332;50.208;18.988;2023-04-15T08:13:07;97036.69;;;40.04;17.15
20350;BME280;10332;50.208;18.988;2023-04-15T08:15:34;97031.53;;;41.78;15.41
20350;BME280;10332;50.208;18.988;2023-04-15T08:18:02;97022.88;;;37.56;16.81
20350;BME280;10332;50.208;18.988;2023-04-15T08:20:29;97027.41;;;34.98;17.80
20350;BME280;10332;50.208;18.988;2023-04-15T08:22:57;97033.34;;;33.33;18.36
20350;BME280;10332;50.208;18.988;2023-04-15T08:25:24;97029.81;;;33.43;19.00
20350;BME280;10332;50.208;18.988;2023-04-15T08:27:54;97034.75;;;34.29;18.13
20350;BME280;10332;50.208;18.988;2023-04-15T08:30:21;97029.94;;;33.02;18.80
20350;BME280;10332;50.208;18.988;2023-04-15T08:32:49;97026.31;;;36.60;17.07
20350;BME280;10332;50.208;18.988;2023-04-15T08:35:17;97025.38;;;37.11;16.61
20350;BME280;10332;50.208;18.988;2023-04-15T08:37:44;97019.78;;;35.86;17.28
20350;BME280;10332;50.208;18.988;2023-04-15T08:40:12;97028.84;;;35.81;17.21
20350;BME280;10332;50.208;18.988;2023-04-15T08:42:47;97038.97;;;33.57;18.19
20350;BME280;10332;50.208;18.988;2023-04-15T08:45:17;97037.28;;;32.86;18.64
20350;BME280;10332;50.208;18.988;2023-04-15T08:47:46;97034.81;;;33.80;18.60
20350;BME280;10332;50.208;18.988;2023-04-15T08:50:16;97037.75;;;35.87;17.49
20350;BME280;10332;50.208;18.988;2023-04-15T08:52:44;97034.59;;;35.98;17.25
20350;BME280;10332;50.208;18.988;2023-04-15T08:55:14;97046.78;;;38.67;16.14
20350;BME280;10332;50.208;18.988;2023-04-15T08:57:42;97034.28;;;37.44;16.31
20350;BME280;10332;50.208;18.988;2023-04-15T09:00:10;97040.06;;;41.85;14.50
20350;BME280;10332;50.208;18.988;2023-04-15T09:02:38;97041.88;;;43.34;13.58
20350;BME280;10332;50.208;18.988;2023-04-15T09:05:07;97050.34;;;46.78;11.95
20350;BME280;10332;50.208;18.988;2023-04-15T09:07:35;97053.69;;;48.42;10.62
20350;BME280;10332;50.208;18.988;2023-04-15T09:10:03;97055.38;;;50.70;9.59
20350;BME280;10332;50.208;18.988;2023-04-15T09:12:34;97058.13;;;48.87;10.24
20350;BME280;10332;50.208;18.988;2023-04-15T09:15:03;97050.28;;;45.81;11.54
20350;BME280;10332;50.208;18.988;2023-04-15T09:17:32;97042.56;;;46.06;11.53
20350;BME280;10332;50.208;18.988;2023-04-15T09:20:09;97040.16;;;44.18;11.49
20350;BME280;10332;50.208;18.988;2023-04-15T09:22:39;97038.31;;;42.43;12.01
20350;BME280;10332;50.208;18.988;2023-04-15T09:25:28;97042.63;;;41.22;12.69
20350;BME280;10332;50.208;18.988;2023-04-15T09:28:00;97039.91;;;47.13;10.71
20350;BME280;10332;50.208;18.988;2023-04-15T09:30:28;97036.34;;;51.86;9.00
20350;BME280;10332;50.208;18.988;2023-04-15T09:33:00;97042.78;;;55.20;8.38
20350;BME280;10332;50.208;18.988;2023-04-15T09:35:28;97034.53;;;56.40;8.14
20350;BME280;10332;50.208;18.988;2023-04-15T09:38:05;97040.25;;;56.88;6.74
20350;BME280;10332;50.208;18.988;2023-04-15T09:40:40;97038.44;;;56.78;6.95
20350;BME280;10332;50.208;18.988;2023-04-15T09:43:09;97033.78;;;56.55;7.17
20350;BME280;10332;50.208;18.988;2023-04-15T09:45:51;97033.09;;;52.83;7.98
20350;BME280;10332;50.208;18.988;2023-04-15T09:48:24;97022.38;;;46.02;10.49
20350;BME280;10332;50.208;18.988;2023-04-15T09:50:58;97015.03;;;40.89;12.99
20350;BME280;10332;50.208;18.988;2023-04-15T09:53:28;97005.72;;;37.28;14.92
20350;BME280;10332;50.208;18.988;2023-04-15T09:55:59;97002.22;;;35.40;15.89
20350;BME280;10332;50.208;18.988;2023-04-15T09:58:32;96996.25;;;40.53;13.30
20350;BME280;10332;50.208;18.988;2023-04-15T10:01:04;97019.59;;;50.54;9.26
20350;BME280;10332;50.208;18.988;2023-04-15T10:03:35;97018.47;;;54.33;7.23
20350;BME280;10332;50.208;18.988;2023-04-15T10:06:04;97021.44;;;55.73;6.99
20350;BME280;10332;50.208;18.988;2023-04-15T10:08:33;97029.00;;;58.12;6.04
20350;BME280;10332;50.208;18.988;2023-04-15T10:11:02;97033.84;;;57.82;5.77
20350;BME280;10332;50.208;18.988;2023-04-15T10:13:31;97008.28;;;49.39;8.70
20350;BME280;10332;50.208;18.988;2023-04-15T10:16:06;97002.81;;;44.33;10.60
20350;BME280;10332;50.208;18.988;2023-04-15T10:18:45;96997.78;;;39.24;13.07
20350;BME280;10332;50.208;18.988;2023-04-15T10:21:13;96995.03;;;37.17;14.57
20350;BME280;10332;50.208;18.988;2023-04-15T10:23:45;96981.22;;;36.21;15.58
20350;BME280;10332;50.208;18.988;2023-04-15T10:26:15;96988.53;;;45.19;11.22
20350;BME280;10332;50.208;18.988;2023-04-15T10:28:44;96980.84;;;41.84;12.43
20350;BME280;10332;50.208;18.988;2023-04-15T10:31:14;96975.66;;;37.19;15.11
20350;BME280;10332;50.208;18.988;2023-04-15T10:33:43;96982.16;;;34.88;16.29
20350;BME280;10332;50.208;18.988;2023-04-15T10:36:12;96980.28;;;35.13;16.72
20350;BME280;10332;50.208;18.988;2023-04-15T10:38:43;96973.78;;;34.85;16.54
20350;BME280;10332;50.208;18.988;2023-04-15T10:44:08;96978.47;;;44.07;11.27
20350;BME280;10332;50.208;18.988;2023-04-15T10:46:40;96984.75;;;42.82;11.46
20350;BME280;10332;50.208;18.988;2023-04-15T10:49:24;96984.97;;;36.25;14.76
20350;BME280;10332;50.208;18.988;2023-04-15T10:51:57;96989.19;;;33.53;16.90
20350;BME280;10332;50.208;18.988;2023-04-15T11:02:07;96977.47;;;27.76;21.98
20350;BME280;10332;50.208;18.988;2023-04-15T11:04:55;96988.31;;;26.77;22.75
20350;BME280;10332;50.208;18.988;2023-04-15T11:12:48;96984.28;;;38.88;14.27
20350;BME280;10332;50.208;18.988;2023-04-15T11:15:38;96976.91;;;37.40;14.88
20350;BME280;10332;50.208;18.988;2023-04-15T11:18:13;96981.00;;;34.07;16.75
20350;BME280;10332;50.208;18.988;2023-04-15T11:25:57;96980.72;;;30.95;18.82
20350;BME280;10332;50.208;18.988;2023-04-15T11:28:29;96987.72;;;29.62;19.71
20350;BME280;10332;50.208;18.988;2023-04-15T11:31:05;96978.97;;;29.06;20.20
20350;BME280;10332;50.208;18.988;2023-04-15T11:33:33;96982.16;;;29.03;20.43
20350;BME280;10332;50.208;18.988;2023-04-15T11:36:01;96988.78;;;29.18;20.75
20350;BME280;10332;50.208;18.988;2023-04-15T11:38:30;96987.59;;;29.52;20.49
20350;BME280;10332;50.208;18.988;2023-04-15T11:40:58;96980.19;;;28.77;20.79
20350;BME280;10332;50.208;18.988;2023-04-15T11:43:26;96984.41;;;28.90;21.16
20350;BME280;10332;50.208;18.988;2023-04-15T11:45:59;96990.91;;;27.93;21.56
20350;BME280;10332;50.208;18.988;2023-04-15T11:48:31;96986.38;;;26.61;22.59
20350;BME280;10332;50.208;18.988;2023-04-15T11:51:02;96992.41;;;25.31;23.36
20350;BME280;10332;50.208;18.988;2023-04-15T11:53:46;96992.13;;;24.84;24.21
20350;BME280;10332;50.208;18.988;2023-04-15T11:56:22;96988.81;;;24.46;24.77
20350;BME280;10332;50.208;18.988;2023-04-15T11:58:56;96990.63;;;23.95;25.30
20350;BME280;10332;50.208;18.988;2023-04-15T12:01:36;96994.25;;;23.76;25.81
20350;BME280;10332;50.208;18.988;2023-04-15T12:04:17;97000.50;;;23.57;26.21
20350;BME280;10332;50.208;18.988;2023-04-15T12:06:51;96993.56;;;23.49;25.91
20350;BME280;10332;50.208;18.988;2023-04-15T12:09:20;96994.28;;;23.69;26.06
20350;BME280;10332;50.208;18.988;2023-04-15T12:11:51;96994.44;;;24.06;26.03
20350;BME280;10332;50.208;18.988;2023-04-15T12:14:31;96995.88;;;24.09;26.45
20350;BME280;10332;50.208;18.988;2023-04-15T12:17:02;97004.13;;;24.32;25.58
20350;BME280;10332;50.208;18.988;2023-04-15T12:19:38;96992.78;;;24.12;25.73
20350;BME280;10332;50.208;18.988;2023-04-15T12:22:16;97006.69;;;23.44;26.31
20350;BME280;10332;50.208;18.988;2023-04-15T12:24:44;97001.72;;;23.09;26.57
20350;BME280;10332;50.208;18.988;2023-04-15T12:27:15;97000.16;;;22.95;26.96
20350;BME280;10332;50.208;18.988;2023-04-15T12:29:44;96999.13;;;22.83;27.35
20350;BME280;10332;50.208;18.988;2023-04-15T12:32:16;96994.66;;;22.70;27.13
20350;BME280;10332;50.208;18.988;2023-04-15T12:34:50;97005.75;;;22.47;27.76
20350;BME280;10332;50.208;18.988;2023-04-15T12:37:19;96999.78;;;22.52;27.93
20350;BME280;10332;50.208;18.988;2023-04-15T12:39:48;97005.91;;;22.72;27.87
20350;BME280;10332;50.208;18.988;2023-04-15T12:42:17;97001.16;;;23.01;27.94
20350;BME280;10332;50.208;18.988;2023-04-15T12:44:45;96998.00;;;23.17;28.24
20350;BME280;10332;50.208;18.988;2023-04-15T12:47:13;97001.59;;;23.36;28.44
20350;BME280;10332;50.208;18.988;2023-04-15T12:49:41;97004.09;;;23.31;28.33
20350;BME280;10332;50.208;18.988;2023-04-15T12:52:08;97002.72;;;23.15;28.32
20350;BME280;10332;50.208;18.988;2023-04-15T12:54:36;96999.28;;;23.08;29.03
20350;BME280;10332;50.208;18.988;2023-04-15T12:57:04;96996.66;;;22.94;29.32
20350;BME280;10332;50.208;18.988;2023-04-15T12:59:34;96996.59;;;23.66;29.71
20350;BME280;10332;50.208;18.988;2023-04-15T13:02:02;96999.50;;;24.14;29.45
20350;BME280;10332;50.208;18.988;2023-04-15T13:04:30;96990.38;;;24.03;29.34
20350;BME280;10332;50.208;18.988;2023-04-15T13:06:58;96986.56;;;23.55;28.83
20350;BME280;10332;50.208;18.988;2023-04-15T13:09:26;96986.91;;;23.27;28.98
20350;BME280;10332;50.208;18.988;2023-04-15T13:11:53;96995.03;;;22.93;29.28
20350;BME280;10332;50.208;18.988;2023-04-15T13:14:21;97003.22;;;22.79;29.59
20350;BME280;10332;50.208;18.988;2023-04-15T13:16:48;96997.31;;;22.77;29.73
20350;BME280;10332;50.208;18.988;2023-04-15T13:19:16;97005.13;;;22.58;29.12
20350;BME280;10332;50.208;18.988;2023-04-15T13:21:43;97004.13;;;22.26;29.52